Time;durP1;ratioP1;P1;durP2;ratioP2;P2;SDS_P1;SDS_P2;PMS_P1;PMS_P2;Temp;Humidity;BMP_temperature;BMP_pressure;BME280_temperature;BME280_humidity;BME280_pressure;Samples;Min_cycle;Max_cycle;Signal;HPM_P1;HPM_P2
2022/04/20 00:00:47;;;;;;;4.38;2.80;;;7.70;99.90;;;;;;5051439;28;20111;-68
2022/04/20 00:03:14;;;;;;;5.72;3.42;;;7.70;99.90;;;;;;5051385;28;20052;-70
2022/04/20 00:05:42;;;;;;;4.65;2.95;;;7.70;99.90;;;;;;5052224;28;20096;-69
2022/04/20 00:08:09;;;;;;;5.07;3.10;;;7.70;99.90;;;;;;5052502;28;20099;-69
2022/04/20 00:10:36;;;;;;;4.38;2.85;;;7.80;99.90;;;;;;5051188;28;20099;-69
2022/04/20 00:13:03;;;;;;;6.85;2.72;;;7.80;99.90;;;;;;5050793;28;20091;-70
2022/04/20 00:15:30;;;;;;;5.55;2.70;;;7.80;99.90;;;;;;5052771;28;20056;-70
2022/04/20 00:17:57;;;;;;;4.53;2.85;;;7.80;99.90;;;;;;5052457;28;20505;-71
2022/04/20 00:20:23;;;;;;;4.50;2.90;;;7.70;99.90;;;;;;5051718;28;20102;-69
2022/04/20 00:22:52;;;;;;;5.70;2.50;;;7.80;99.90;;;;;;5052329;28;20076;-69
2022/04/20 00:25:18;;;;;;;5.72;3.17;;;7.70;99.90;;;;;;5050315;28;20053;-69
2022/04/20 00:27:45;;;;;;;7.97;3.17;;;7.70;99.90;;;;;;5052098;28;20582;-69
2022/04/20 00:30:13;;;;;;;4.07;2.60;;;7.70;99.90;;;;;;5052402;28;20092;-70
2022/04/20 00:32:41;;;;;;;6.20;3.15;;;7.70;99.90;;;;;;5050535;28;20099;-70
2022/04/20 00:35:09;;;;;;;4.70;3.08;;;7.70;99.90;;;;;;5051293;28;20099;-70
2022/04/20 00:37:36;;;;;;;4.75;2.78;;;7.70;99.90;;;;;;5050976;28;20057;-70
2022/04/20 00:40:05;;;;;;;6.28;2.53;;;7.70;99.90;;;;;;5051555;28;20045;-70
2022/04/20 00:42:33;;;;;;;5.28;2.63;;;7.60;99.90;;;;;;5051853;28;20041;-70
2022/04/20 00:45:00;;;;;;;5.97;2.65;;;7.60;99.90;;;;;;5052464;28;20467;-71
2022/04/20 00:47:30;;;;;;;8.35;3.25;;;7.60;99.90;;;;;;5050566;28;20107;-72
2022/04/20 00:49:58;;;;;;;5.40;3.00;;;7.60;99.90;;;;;;5053693;28;20091;-71
2022/04/20 00:52:24;;;;;;;7.72;3.20;;;7.60;99.90;;;;;;5055672;28;20409;-71
2022/04/20 00:54:51;;;;;;;4.50;2.80;;;7.60;99.90;;;;;;5054354;28;20053;-71
2022/04/20 00:57:19;;;;;;;4.78;2.80;;;7.50;99.90;;;;;;5055998;28;20118;-70
2022/04/20 00:59:49;;;;;;;5.90;3.28;;;7.50;99.90;;;;;;5055716;28;20049;-71
2022/04/20 01:02:16;;;;;;;4.45;2.90;;;7.50;99.90;;;;;;5054079;28;20110;-70
2022/04/20 01:04:42;;;;;;;4.55;2.90;;;7.50;99.90;;;;;;5055814;28;20057;-71
2022/04/20 01:07:13;;;;;;;6.90;3.17;;;7.50;99.90;;;;;;5054398;28;20053;-72
2022/04/20 01:09:41;;;;;;;9.20;3.33;;;7.40;99.90;;;;;;5055119;28;20045;-71
2022/04/20 01:12:09;;;;;;;8.50;3.13;;;7.40;99.90;;;;;;5054355;28;20053;-69
2022/04/20 01:14:37;;;;;;;4.97;2.95;;;7.40;99.90;;;;;;5055031;28;20053;-69
2022/04/20 01:17:05;;;;;;;7.53;3.20;;;7.40;99.90;;;;;;5055562;28;20053;-69
2022/04/20 01:19:33;;;;;;;6.20;3.20;;;7.30;99.90;;;;;;5055648;28;20463;-69
2022/04/20 01:22:01;;;;;;;6.45;3.33;;;7.30;99.90;;;;;;5054239;28;20053;-69
2022/04/20 01:24:28;;;;;;;6.45;3.05;;;7.30;99.90;;;;;;5055417;28;20214;-69
2022/04/20 01:26:57;;;;;;;4.85;2.95;;;7.30;99.90;;;;;;5055000;28;20061;-70
2022/04/20 01:29:25;;;;;;;4.78;3.10;;;7.30;99.90;;;;;;5053814;28;20048;-69
2022/04/20 01:31:52;;;;;;;4.80;3.35;;;7.20;99.90;;;;;;5055161;28;20045;-69
2022/04/20 01:34:19;;;;;;;5.15;2.78;;;7.20;99.90;;;;;;5053960;28;20114;-70
2022/04/20 01:36:46;;;;;;;9.00;3.42;;;7.20;99.90;;;;;;5054075;28;20111;-70
2022/04/20 01:39:15;;;;;;;8.23;3.75;;;7.20;99.90;;;;;;5054990;28;20049;-70
2022/04/20 01:41:42;;;;;;;9.52;3.90;;;7.20;99.90;;;;;;5053192;28;20037;-70
2022/04/20 01:44:09;;;;;;;11.35;3.72;;;7.10;99.90;;;;;;5053510;28;20153;-70
2022/04/20 01:46:36;;;;;;;6.38;3.70;;;7.10;99.90;;;;;;5053462;28;20087;-70
2022/04/20 01:49:03;;;;;;;7.28;3.15;;;7.10;99.90;;;;;;5053359;28;20045;-70
2022/04/20 01:51:50;;;;;;;7.03;3.33;;;7.10;99.90;;;;;;5052808;28;20049;-70
2022/04/20 01:54:19;;;;;;;5.10;3.38;;;7.00;99.90;;;;;;5053488;28;20500;-70
2022/04/20 01:56:46;;;;;;;5.10;3.30;;;7.00;99.90;;;;;;5053098;28;20055;-70
2022/04/20 01:59:13;;;;;;;5.38;3.30;;;7.10;99.90;;;;;;5054777;28;20087;-69
2022/04/20 02:04:24;;;;;;;5.28;3.42;;;7.00;99.90;;;;;;5052781;28;20044;-69
2022/04/20 02:06:51;;;;;;;5.88;3.50;;;6.90;99.90;;;;;;5054976;28;20407;-69
2022/04/20 02:09:19;;;;;;;6.82;3.20;;;7.00;99.90;;;;;;5053496;28;20112;-70
2022/04/20 02:11:46;;;;;;;6.00;3.80;;;7.00;99.90;;;;;;5052735;28;20044;-69
2022/04/20 02:14:13;;;;;;;9.27;3.40;;;6.90;99.90;;;;;;5053467;28;20053;-69
2022/04/20 02:16:40;;;;;;;7.15;3.63;;;6.90;99.90;;;;;;5053889;28;20049;-70
2022/04/20 02:19:07;;;;;;;8.18;4.03;;;6.90;99.90;;;;;;5052550;28;20057;-70
2022/04/20 02:21:34;;;;;;;6.18;3.25;;;6.90;99.90;;;;;;5054126;28;20037;-69
2022/04/20 02:24:00;;;;;;;9.02;3.80;;;7.00;99.90;;;;;;5052912;28;20049;-71
2022/04/20 02:26:29;;;;;;;5.65;3.45;;;6.90;99.90;;;;;;5053777;28;20566;-70
2022/04/20 02:28:56;;;;;;;5.97;3.70;;;6.90;99.90;;;;;;5052572;28;20053;-70
2022/04/20 02:31:22;;;;;;;7.00;3.60;;;6.80;99.90;;;;;;5052386;28;20060;-70
2022/04/20 02:33:49;;;;;;;7.75;3.65;;;7.00;99.90;;;;;;5052657;28;20462;-69
2022/04/20 02:36:16;;;;;;;5.57;3.63;;;6.80;99.90;;;;;;5053119;28;20064;-70
2022/04/20 02:38:43;;;;;;;6.50;3.72;;;6.80;99.90;;;;;;5052916;28;20056;-70
2022/04/20 02:41:11;;;;;;;6.88;3.72;;;6.70;99.90;;;;;;5052141;28;20485;-70
2022/04/20 02:43:39;;;;;;;8.63;4.43;;;6.70;99.90;;;;;;5052642;28;20106;-70
2022/04/20 02:46:07;;;;;;;8.45;3.92;;;6.70;99.90;;;;;;5052002;28;20056;-70
2022/04/20 02:48:35;;;;;;;7.90;3.92;;;6.70;99.90;;;;;;5052834;28;20096;-70
2022/04/20 02:51:02;;;;;;;10.52;3.70;;;6.70;99.90;;;;;;5054173;28;20045;-70
2022/04/20 02:53:29;;;;;;;8.38;3.30;;;6.70;99.90;;;;;;5051741;28;20485;-70
2022/04/20 02:55:56;;;;;;;7.03;3.67;;;6.60;99.90;;;;;;5054062;28;20099;-70
2022/04/20 02:58:22;;;;;;;5.18;3.60;;;6.60;99.90;;;;;;5052697;28;20057;-70
2022/04/20 03:00:50;;;;;;;6.32;4.13;;;6.60;99.90;;;;;;5053013;28;20471;-70
2022/04/20 03:03:17;;;;;;;5.75;3.53;;;6.60;99.90;;;;;;5052347;28;20049;-70
2022/04/20 03:05:44;;;;;;;7.28;3.92;;;6.60;99.90;;;;;;5052342;28;20102;-70
2022/04/20 03:08:11;;;;;;;5.25;3.60;;;6.70;99.90;;;;;;5053010;28;20110;-70
2022/04/20 03:10:38;;;;;;;6.70;3.95;;;6.50;99.90;;;;;;5053297;28;20416;-69
2022/04/20 03:13:05;;;;;;;6.15;3.78;;;6.50;99.90;;;;;;5051843;28;20567;-69
2022/04/20 03:15:32;;;;;;;6.05;3.90;;;6.50;99.90;;;;;;5051431;28;20059;-70
2022/04/20 03:18:01;;;;;;;4.57;3.33;;;6.50;99.90;;;;;;5053438;28;20123;-69
2022/04/20 03:20:28;;;;;;;9.68;4.10;;;6.50;99.90;;;;;;5052256;28;20122;-69
2022/04/20 03:22:55;;;;;;;5.28;3.63;;;6.40;99.90;;;;;;5051280;28;20052;-70
2022/04/20 03:25:21;;;;;;;4.85;3.65;;;6.40;99.90;;;;;;5052757;28;20048;-70
2022/04/20 03:27:48;;;;;;;5.57;3.83;;;6.30;99.90;;;;;;5053014;28;20057;-69
2022/04/20 03:30:15;;;;;;;5.38;3.38;;;6.40;99.90;;;;;;5052482;28;20049;-69
2022/04/20 03:32:42;;;;;;;7.28;3.53;;;6.30;99.90;;;;;;5051515;28;20049;-69
2022/04/20 03:35:11;;;;;;;7.32;3.72;;;6.30;99.90;;;;;;5051534;28;20056;-69
2022/04/20 03:37:38;;;;;;;7.45;3.75;;;6.30;99.90;;;;;;5051699;28;20492;-69
2022/04/20 03:40:06;;;;;;;6.13;4.22;;;6.30;99.90;;;;;;5052486;28;20102;-69
2022/04/20 03:42:33;;;;;;;6.80;4.32;;;6.30;99.90;;;;;;5050878;28;20049;-71
2022/04/20 03:45:00;;;;;;;6.07;3.95;;;6.20;99.90;;;;;;5045847;28;20056;-69
2022/04/20 03:47:27;;;;;;;6.38;3.75;;;6.30;99.90;;;;;;5050735;28;20049;-70
2022/04/20 03:49:53;;;;;;;8.85;4.10;;;6.30;99.90;;;;;;5048970;28;20408;-70
2022/04/20 03:52:22;;;;;;;6.18;3.42;;;6.30;99.90;;;;;;5049602;28;20118;-70
2022/04/20 03:54:49;;;;;;;5.65;4.00;;;6.30;99.90;;;;;;5049885;28;20075;-71
2022/04/20 03:57:16;;;;;;;7.55;4.53;;;6.30;99.90;;;;;;5049976;28;20118;-70
2022/04/20 03:59:43;;;;;;;5.43;3.10;;;6.30;99.90;;;;;;5050813;28;20067;-71
2022/04/20 04:02:10;;;;;;;5.53;4.07;;;6.20;99.90;;;;;;5050084;28;20099;-71
2022/04/20 04:04:37;;;;;;;5.18;3.92;;;6.20;99.90;;;;;;5048555;28;20099;-71
2022/04/20 04:07:04;;;;;;;7.03;4.25;;;6.20;99.90;;;;;;5050838;28;20049;-70
2022/04/20 04:09:32;;;;;;;6.25;4.10;;;6.20;99.90;;;;;;5049082;28;20102;-70
2022/04/20 04:11:59;;;;;;;6.47;3.75;;;6.30;99.90;;;;;;5049203;28;20085;-70
2022/04/20 04:14:26;;;;;;;6.15;4.03;;;6.30;99.90;;;;;;5050166;28;20048;-70
2022/04/20 04:16:53;;;;;;;6.70;3.50;;;6.20;99.90;;;;;;5050169;28;20094;-70
2022/04/20 04:19:20;;;;;;;5.20;3.75;;;6.30;99.90;;;;;;5049804;28;20107;-71
2022/04/20 04:21:47;;;;;;;5.05;3.47;;;6.20;99.90;;;;;;5049413;28;20052;-71
2022/04/20 04:24:34;;;;;;;10.40;4.07;;;6.20;99.90;;;;;;5051640;28;20049;-70
2022/04/20 04:27:03;;;;;;;7.07;4.15;;;6.20;99.90;;;;;;5053327;28;20052;-71
2022/04/20 04:29:31;;;;;;;7.50;3.97;;;6.20;99.90;;;;;;5053535;28;20424;-71
2022/04/20 04:31:59;;;;;;;6.70;3.70;;;6.10;99.90;;;;;;5053708;28;20041;-72
2022/04/20 04:34:26;;;;;;;5.85;3.95;;;6.10;99.90;;;;;;5054784;28;20049;-71
2022/04/20 04:36:54;;;;;;;5.65;3.65;;;6.10;99.90;;;;;;5054060;28;20040;-70
2022/04/20 04:39:21;;;;;;;5.03;4.10;;;6.10;99.90;;;;;;5052057;28;20497;-70
2022/04/20 04:41:49;;;;;;;7.38;4.13;;;6.10;99.90;;;;;;5053187;28;20040;-70
2022/04/20 04:44:18;;;;;;;7.60;4.13;;;6.00;99.90;;;;;;5054457;28;20158;-70
2022/04/20 04:49:29;;;;;;;5.82;4.20;;;6.00;99.90;;;;;;5055128;28;20511;-70
2022/04/20 04:51:56;;;;;;;6.72;4.32;;;6.00;99.90;;;;;;5053351;28;20547;-71
2022/04/20 04:54:23;;;;;;;9.35;4.63;;;6.00;99.90;;;;;;5052529;28;20505;-70
2022/04/20 04:56:50;;;;;;;7.57;4.05;;;5.90;99.90;;;;;;5053507;28;20130;-70
2022/04/20 04:59:19;;;;;;;7.50;4.63;;;5.90;99.90;;;;;;5053868;28;20045;-70
2022/04/20 05:01:45;;;;;;;6.15;3.70;;;5.90;99.90;;;;;;5052416;28;20463;-70
2022/04/20 05:04:12;;;;;;;8.57;4.30;;;5.90;99.90;;;;;;5053940;28;20057;-70
2022/04/20 05:06:39;;;;;;;5.85;3.85;;;5.90;99.90;;;;;;5054121;28;20374;-69
2022/04/20 05:09:06;;;;;;;7.13;4.07;;;5.90;99.90;;;;;;5054315;28;20041;-70
2022/04/20 05:11:33;;;;;;;5.93;4.22;;;5.90;99.90;;;;;;5053678;28;20094;-70
2022/04/20 05:14:00;;;;;;;6.22;3.90;;;6.00;99.90;;;;;;5041887;28;20431;-70
2022/04/20 05:16:28;;;;;;;6.88;4.00;;;6.10;99.90;;;;;;5049429;28;20186;-71
2022/04/20 05:18:56;;;;;;;8.70;4.03;;;6.10;99.90;;;;;;5054573;28;20049;-70
2022/04/20 05:21:23;;;;;;;8.02;4.10;;;6.10;99.90;;;;;;5053021;28;20481;-70
2022/04/20 05:23:50;;;;;;;6.20;4.05;;;6.20;99.90;;;;;;5052729;28;20049;-70
2022/04/20 05:26:17;;;;;;;5.97;4.13;;;6.20;99.90;;;;;;5054114;28;20111;-70
2022/04/20 05:28:43;;;;;;;6.47;4.05;;;6.20;99.90;;;;;;5053026;28;20382;-69
2022/04/20 05:31:10;;;;;;;7.03;3.95;;;6.30;99.90;;;;;;5054311;28;20115;-69
2022/04/20 05:33:38;;;;;;;6.95;4.20;;;6.30;99.90;;;;;;5054393;28;20115;-70
2022/04/20 05:36:06;;;;;;;8.13;4.57;;;6.40;99.90;;;;;;5051737;28;20045;-70
2022/04/20 05:44:01;;;;;;;9.02;4.03;;;6.50;99.90;;;;;;5055559;28;20101;-71
2022/04/20 05:46:28;;;;;;;6.78;4.30;;;6.60;99.90;;;;;;5052059;28;20045;-71
2022/04/20 05:48:56;;;;;;;7.18;3.90;;;6.70;99.90;;;;;;5051314;28;20091;-70
2022/04/20 05:51:23;;;;;;;7.18;3.80;;;6.80;99.90;;;;;;5053104;28;20062;-70
2022/04/20 05:53:50;;;;;;;7.15;3.95;;;6.90;99.90;;;;;;5052478;28;20049;-71
2022/04/20 05:56:17;;;;;;;12.32;4.22;;;7.20;99.90;;;;;;5050900;28;20076;-71
2022/04/20 05:58:46;;;;;;;5.72;3.75;;;7.20;99.90;;;;;;5052758;28;20106;-71
2022/04/20 06:01:14;;;;;;;6.05;3.83;;;7.40;99.90;;;;;;5051089;28;20417;-71
2022/04/20 06:03:41;;;;;;;7.65;4.50;;;7.60;99.90;;;;;;5050621;28;20144;-70
2022/04/20 06:06:09;;;;;;;6.10;3.83;;;7.80;99.90;;;;;;5052326;28;20049;-71
2022/04/20 06:08:36;;;;;;;8.93;4.40;;;8.00;99.90;;;;;;5053273;28;20131;-70
2022/04/20 06:11:04;;;;;;;4.25;3.30;;;8.20;99.90;;;;;;5050706;28;20130;-70
2022/04/20 06:13:32;;;;;;;5.97;4.22;;;8.50;99.90;;;;;;5052187;28;20040;-71
2022/04/20 06:15:59;;;;;;;7.57;4.20;;;8.90;99.90;;;;;;5051831;28;20049;-70
2022/04/20 06:18:26;;;;;;;8.20;4.18;;;9.20;99.90;;;;;;5050298;28;20057;-70
2022/04/20 06:20:53;;;;;;;7.07;4.25;;;9.80;99.90;;;;;;5051943;28;20053;-71
2022/04/20 06:23:22;;;;;;;9.88;4.57;;;10.30;99.90;;;;;;5051048;28;20049;-71
2022/04/20 06:25:49;;;;;;;6.55;3.90;;;10.80;99.90;;;;;;5052111;28;20045;-71
2022/04/20 06:28:16;;;;;;;6.43;4.25;;;11.30;99.90;;;;;;5052039;28;20475;-71
2022/04/20 06:30:43;;;;;;;7.25;4.20;;;11.90;99.90;;;;;;5050491;28;20269;-71
2022/04/20 06:33:10;;;;;;;5.95;4.18;;;12.50;99.90;;;;;;5050170;28;20465;-71
2022/04/20 06:35:37;;;;;;;8.55;4.07;;;13.10;99.90;;;;;;5052212;28;20126;-71
2022/04/20 06:38:03;;;;;;;6.80;3.70;;;13.60;99.20;;;;;;5052625;28;20417;-70
2022/04/20 06:40:32;;;;;;;8.88;4.25;;;14.00;97.50;;;;;;5051227;28;20087;-70
2022/04/20 06:42:58;;;;;;;6.10;3.67;;;14.50;96.90;;;;;;5050766;28;20122;-70
2022/04/20 06:45:25;;;;;;;7.13;4.05;;;14.70;95.80;;;;;;5050029;28;20053;-71
2022/04/20 06:47:52;;;;;;;7.03;3.90;;;15.30;95.40;;;;;;5052018;28;20053;-70
2022/04/20 06:50:19;;;;;;;6.45;3.42;;;15.70;94.70;;;;;;5052000;28;20450;-71
2022/04/20 06:58:35;;;;;;;5.20;3.45;;;16.10;90.70;;;;;;5049565;28;20134;-70
2022/04/20 07:01:04;;;;;;;5.03;3.22;;;16.40;90.70;;;;;;5049853;28;20451;-70
2022/04/20 07:03:32;;;;;;;4.85;3.42;;;16.60;90.00;;;;;;5050065;28;20041;-70
2022/04/20 07:05:58;;;;;;;6.60;3.38;;;16.70;87.90;;;;;;5051646;28;20049;-70
2022/04/20 07:08:25;;;;;;;4.70;3.00;;;16.80;85.50;;;;;;5049571;28;20098;-70
2022/04/20 07:10:54;;;;;;;8.13;3.47;;;17.00;86.70;;;;;;5052476;28;20448;-70
2022/04/20 07:13:21;;;;;;;7.55;2.95;;;17.30;86.20;;;;;;5050971;28;20063;-70
2022/04/20 07:15:48;;;;;;;4.85;3.08;;;17.50;85.60;;;;;;5033304;28;20103;-70
2022/04/20 07:18:15;;;;;;;3.88;2.97;;;17.60;84.20;;;;;;5032396;28;20057;-71
2022/04/20 07:20:42;;;;;;;5.10;3.35;;;17.80;82.80;;;;;;5031667;28;20190;-70
2022/04/20 07:23:09;;;;;;;6.97;3.25;;;17.90;80.30;;;;;;5031860;28;20041;-70
2022/04/20 07:25:38;;;;;;;7.78;3.45;;;18.20;82.30;;;;;;5039693;28;20455;-70
2022/04/20 07:28:07;;;;;;;4.38;3.28;;;18.10;79.80;;;;;;5051336;28;20579;-70
2022/04/20 07:30:34;;;;;;;5.68;3.55;;;17.90;79.10;;;;;;5051672;28;20056;-70
2022/04/20 07:33:02;;;;;;;5.10;3.22;;;18.10;79.60;;;;;;5052645;28;20044;-70
2022/04/20 07:35:29;;;;;;;7.93;2.75;;;18.30;79.60;;;;;;5052225;28;20052;-69
2022/04/20 07:37:56;;;;;;;5.35;2.80;;;18.60;78.40;;;;;;5053078;28;20046;-70
2022/04/20 07:40:24;;;;;;;5.30;3.13;;;18.70;74.80;;;;;;5053047;28;20057;-70
2022/04/20 07:42:54;;;;;;;5.18;2.75;;;19.00;76.60;;;;;;5052192;28;20041;-70
2022/04/20 07:45:25;;;;;;;4.28;2.70;;;19.20;74.10;;;;;;5051813;28;20059;-70
2022/04/20 07:47:53;;;;;;;4.25;2.80;;;19.20;69.90;;;;;;5052259;28;20059;-70
2022/04/20 07:50:21;;;;;;;7.45;2.63;;;19.50;73.10;;;;;;5052408;28;20471;-71
2022/04/20 07:52:50;;;;;;;4.00;2.70;;;19.60;72.90;;;;;;5050307;28;20049;-70
2022/04/20 07:55:18;;;;;;;4.38;2.20;;;20.00;70.60;;;;;;5053593;28;20167;-70
2022/04/20 07:57:45;;;;;;;3.67;2.40;;;20.20;70.90;;;;;;5052111;28;20060;-70
2022/04/20 08:00:14;;;;;;;3.88;2.55;;;20.20;67.20;;;;;;5051667;28;20532;-70
2022/04/20 08:02:43;;;;;;;4.05;2.28;;;20.00;67.00;;;;;;5051605;28;20045;-69
2022/04/20 08:05:10;;;;;;;2.90;2.03;;;20.20;65.80;;;;;;5052286;28;20045;-70
2022/04/20 08:07:37;;;;;;;3.75;2.10;;;20.60;64.70;;;;;;5051427;28;20417;-69
2022/04/20 08:10:06;;;;;;;3.47;2.13;;;21.20;64.90;;;;;;5051839;28;20496;-69
2022/04/20 08:12:37;;;;;;;4.40;2.53;;;21.10;63.40;;;;;;5053080;28;20055;-70
2022/04/20 08:15:05;;;;;;;3.80;2.28;;;21.20;61.10;;;;;;5052613;28;20191;-70
2022/04/20 08:17:32;;;;;;;3.80;2.05;;;21.30;62.50;;;;;;5050862;28;20143;-70
2022/04/20 08:20:01;;;;;;;3.75;1.80;;;21.30;61.90;;;;;;5051248;28;20053;-70
2022/04/20 08:22:28;;;;;;;4.25;2.35;;;21.10;57.90;;;;;;5052250;28;20045;-70
2022/04/20 08:24:55;;;;;;;4.70;2.00;;;21.30;60.30;;;;;;5052064;28;20464;-70
2022/04/20 08:27:22;;;;;;;2.10;1.60;;;21.80;60.40;;;;;;5050872;28;20057;-70
2022/04/20 08:29:51;;;;;;;2.95;1.85;;;22.10;60.30;;;;;;5052492;28;20051;-70
2022/04/20 08:32:19;;;;;;;7.33;2.03;;;22.20;60.00;;;;;;5050583;28;20136;-70
2022/04/20 08:34:48;;;;;;;5.03;1.70;;;22.10;57.80;;;;;;5052647;28;20292;-70
2022/04/20 08:37:17;;;;;;;2.47;1.60;;;22.00;56.90;;;;;;5053568;28;20076;-70
2022/04/20 08:39:44;;;;;;;3.28;1.52;;;22.00;54.70;;;;;;5051369;28;20049;-71
2022/04/20 08:42:12;;;;;;;4.47;1.73;;;22.30;55.80;;;;;;5051318;28;20493;-70
2022/04/20 08:44:46;;;;;;;4.03;1.42;;;22.10;54.90;;;;;;5051231;28;20175;-71
2022/04/20 08:47:18;;;;;;;2.45;1.38;;;22.40;52.80;;;;;;5052828;28;20049;-70
2022/04/20 08:49:46;;;;;;;6.22;1.65;;;22.60;51.60;;;;;;5032220;28;20492;-70
2022/04/20 08:54:59;;;;;;;2.17;1.30;;;22.20;50.40;;;;;;5051607;28;20063;-70
2022/04/20 08:57:26;;;;;;;2.30;1.45;;;22.10;50.60;;;;;;5052275;28;20048;-71
2022/04/20 08:59:54;;;;;;;2.35;1.30;;;22.10;50.20;;;;;;5050591;28;20060;-71
2022/04/20 09:02:24;;;;;;;5.35;1.75;;;22.50;52.00;;;;;;5051848;28;20511;-71
2022/04/20 09:04:52;;;;;;;2.88;1.40;;;22.90;51.90;;;;;;5051310;28;20053;-71
2022/04/20 09:07:19;;;;;;;3.90;1.48;;;23.40;51.90;;;;;;5051696;28;20166;-70
2022/04/20 09:09:46;;;;;;;2.30;1.40;;;23.40;51.80;;;;;;5051258;28;20061;-71
2022/04/20 09:12:17;;;;;;;2.00;1.30;;;23.30;50.90;;;;;;5055584;28;20057;-71
2022/04/20 09:14:48;;;;;;;2.75;1.23;;;23.50;50.60;;;;;;5070771;28;20056;-70
2022/04/20 09:17:17;;;;;;;2.75;1.30;;;23.30;50.90;;;;;;5051221;28;20468;-72
2022/04/20 09:19:45;;;;;;;3.25;1.70;;;23.10;50.70;;;;;;5051918;28;20057;-72
2022/04/20 09:22:22;;;;;;;2.90;1.50;;;23.20;50.80;;;;;;5052033;28;20131;-72
2022/04/20 09:25:05;;;;;;;3.38;1.23;;;23.50;50.40;;;;;;5052764;28;20049;-71
2022/04/20 09:27:35;;;;;;;4.20;1.60;;;23.60;50.50;;;;;;5048910;28;20132;-70
2022/04/20 09:30:04;;;;;;;4.45;1.52;;;23.90;50.30;;;;;;5054113;28;20111;-70
2022/04/20 09:32:36;;;;;;;2.75;1.23;;;23.70;50.70;;;;;;5053263;28;20056;-70
2022/04/20 09:35:06;;;;;;;2.50;1.30;;;23.40;49.40;;;;;;5053013;28;20079;-70
2022/04/20 09:37:34;;;;;;;3.20;1.70;;;23.60;49.80;;;;;;5053022;28;20055;-69
2022/04/20 09:40:04;;;;;;;2.72;1.45;;;23.40;50.70;;;;;;5052143;28;20099;-70
2022/04/20 09:42:34;;;;;;;4.38;1.80;;;23.40;49.90;;;;;;5050418;28;20063;-69
2022/04/20 09:45:04;;;;;;;9.30;2.00;;;23.30;49.40;;;;;;5031794;28;20057;-69
2022/04/20 09:50:23;;;;;;;3.97;1.58;;;23.50;50.10;;;;;;5053977;28;19924;-70
2022/04/20 09:52:52;;;;;;;3.85;1.10;;;23.60;49.10;;;;;;5052108;28;20045;-70
2022/04/20 09:55:28;;;;;;;2.13;1.13;;;23.90;49.50;;;;;;5052348;28;20041;-70
2022/04/20 09:58:15;;;;;;;3.60;1.23;;;23.70;47.20;;;;;;5052913;28;20061;-69
2022/04/20 10:00:43;;;;;;;3.78;1.25;;;23.60;48.40;;;;;;5052470;28;20040;-69
2022/04/20 10:03:10;;;;;;;7.03;1.40;;;23.80;48.30;;;;;;5049572;28;20096;-71
2022/04/20 10:05:38;;;;;;;2.58;1.55;;;24.30;48.10;;;;;;5051565;28;20115;-70
2022/04/20 10:08:05;;;;;;;3.92;1.75;;;23.70;48.60;;;;;;5051863;28;20091;-69
2022/04/20 10:10:34;;;;;;;3.95;1.75;;;23.70;49.80;;;;;;5052317;28;20412;-70
2022/04/20 10:13:04;;;;;;;2.83;1.52;;;23.50;49.30;;;;;;5052500;28;20053;-71
2022/04/20 10:18:20;;;;;;;2.85;1.52;;;23.50;49.00;;;;;;5049289;28;20068;-70
2022/04/20 10:20:51;;;;;;;4.38;1.75;;;23.40;48.80;;;;;;5053038;28;20401;-70
2022/04/20 10:23:21;;;;;;;2.42;1.50;;;23.60;49.90;;;;;;5049770;28;20044;-70
2022/04/20 10:25:49;;;;;;;3.47;1.58;;;23.80;49.10;;;;;;5048282;28;20107;-71
2022/04/20 10:28:24;;;;;;;3.10;1.80;;;23.60;48.10;;;;;;5052071;28;20136;-71
2022/04/20 10:31:04;;;;;;;2.72;1.30;;;23.60;49.00;;;;;;5050017;28;20056;-72
2022/04/20 10:33:31;;;;;;;2.58;1.25;;;23.90;47.10;;;;;;5050721;28;20045;-70
2022/04/20 10:36:00;;;;;;;2.53;1.50;;;24.20;47.60;;;;;;5052519;28;20075;-70
2022/04/20 10:38:29;;;;;;;2.67;1.33;;;24.20;47.60;;;;;;5050710;28;20048;-70
2022/04/20 10:41:07;;;;;;;3.83;1.20;;;24.00;46.90;;;;;;5034274;28;20056;-70
2022/04/20 10:43:38;;;;;;;6.20;1.50;;;24.00;47.40;;;;;;5049145;28;20306;-70
2022/04/20 10:46:15;;;;;;;2.42;1.40;;;24.10;47.60;;;;;;5050920;28;20051;-71
2022/04/20 10:48:47;;;;;;;2.10;1.10;;;23.90;47.00;;;;;;5050967;28;20053;-71
2022/04/20 10:51:15;;;;;;;3.85;1.35;;;23.90;47.00;;;;;;5026027;28;20063;-71
2022/04/20 10:53:44;;;;;;;2.38;1.10;;;23.80;47.10;;;;;;5036810;28;20136;-71
2022/04/20 10:56:11;;;;;;;1.95;1.15;;;23.90;47.80;;;;;;5051045;28;20128;-71
2022/04/20 10:58:38;;;;;;;4.90;1.33;;;23.90;47.60;;;;;;5050930;28;20492;-71
2022/04/20 11:01:10;;;;;;;3.08;1.05;;;24.00;46.80;;;;;;5050865;28;20052;-71
2022/04/20 11:04:08;;;;;;;2.10;1.10;;;24.10;46.80;;;;;;5048880;28;20094;-71
2022/04/20 11:07:12;;;;;;;3.15;1.40;;;24.00;47.20;;;;;;5046787;28;20041;-71
2022/04/20 11:10:06;;;;;;;2.03;0.93;;;24.30;47.70;;;;;;5037777;28;20053;-71
2022/04/20 11:18:40;;;;;;;3.05;1.10;;;24.80;46.20;;;;;;5049484;28;20052;-70
2022/04/20 11:21:20;;;;;;;1.95;0.70;;;24.50;47.20;;;;;;5050539;28;20049;-71
2022/04/20 11:23:59;;;;;;;3.20;1.20;;;24.70;53.30;;;;;;5052016;28;20048;-71
2022/04/20 11:26:28;;;;;;;1.60;0.77;;;25.40;48.50;;;;;;5052993;28;20110;-71
2022/04/20 11:28:57;;;;;;;5.43;1.17;;;25.40;47.20;;;;;;5052986;28;20076;-70
2022/04/20 11:31:24;;;;;;;2.67;0.90;;;25.50;46.90;;;;;;5053287;28;20495;-70
2022/04/20 11:33:54;;;;;;;2.55;0.90;;;25.20;45.40;;;;;;5050319;28;20458;-70
2022/04/20 11:36:21;;;;;;;2.15;1.02;;;25.10;45.70;;;;;;5052818;28;20056;-69
2022/04/20 11:38:50;;;;;;;1.52;0.90;;;25.20;46.20;;;;;;5052869;28;20059;-70
2022/04/20 11:41:18;;;;;;;2.17;1.00;;;25.30;46.90;;;;;;5052257;28;20140;-70
2022/04/20 11:43:47;;;;;;;2.03;1.00;;;25.70;48.70;;;;;;5051140;28;20044;-70
2022/04/20 11:46:14;;;;;;;3.60;1.33;;;25.40;47.10;;;;;;5051566;28;20111;-70
2022/04/20 11:48:51;;;;;;;2.10;0.93;;;25.40;47.60;;;;;;5052384;28;20197;-71
2022/04/20 11:51:23;;;;;;;2.28;1.00;;;25.00;46.10;;;;;;5052868;28;20053;-70
2022/04/20 11:53:50;;;;;;;2.30;0.93;;;25.40;46.20;;;;;;5052441;28;20453;-72
2022/04/20 11:56:17;;;;;;;1.70;0.90;;;25.30;47.90;;;;;;5051168;28;20060;-72
2022/04/20 11:58:51;;;;;;;1.77;0.80;;;25.10;47.00;;;;;;5051277;28;20101;-71
2022/04/20 12:01:18;;;;;;;1.60;0.80;;;25.60;47.60;;;;;;5068664;28;20057;-71
2022/04/20 12:03:50;;;;;;;1.92;0.90;;;25.90;48.20;;;;;;5051955;28;20052;-70
2022/04/20 12:06:17;;;;;;;2.60;0.80;;;26.00;47.50;;;;;;5051744;28;20052;-71
2022/04/20 12:08:47;;;;;;;3.30;0.80;;;26.00;47.50;;;;;;5051920;28;20072;-70
2022/04/20 12:11:15;;;;;;;1.40;0.70;;;25.90;47.60;;;;;;5051911;28;20057;-70
2022/04/20 12:13:42;;;;;;;1.48;0.82;;;25.60;48.00;;;;;;5051200;28;20049;-71
2022/04/20 12:16:10;;;;;;;3.65;0.90;;;25.50;47.10;;;;;;5050971;28;20045;-71
2022/04/20 12:18:40;;;;;;;1.95;0.93;;;25.50;47.60;;;;;;5051437;28;20493;-71
2022/04/20 12:21:41;;;;;;;1.30;0.80;;;25.50;47.80;;;;;;5051496;28;20114;-70
2022/04/20 12:24:11;;;;;;;1.48;0.95;;;25.20;47.60;;;;;;5050492;28;20081;-71
2022/04/20 12:26:43;;;;;;;2.03;1.00;;;25.20;49.00;;;;;;5051448;28;20085;-71
2022/04/20 12:29:11;;;;;;;2.60;0.98;;;25.80;48.40;;;;;;5052383;28;20091;-71
2022/04/20 12:31:43;;;;;;;1.60;0.70;;;25.90;48.20;;;;;;5051581;28;20052;-72
2022/04/20 12:34:11;;;;;;;4.22;0.95;;;26.00;48.00;;;;;;5054349;28;20048;-72
2022/04/20 12:36:59;;;;;;;1.80;0.80;;;26.10;47.90;;;;;;5052641;28;20452;-72
2022/04/20 12:39:30;;;;;;;2.80;1.20;;;26.10;48.70;;;;;;5047906;28;20080;-71
2022/04/20 12:41:58;;;;;;;1.50;0.90;;;25.70;47.10;;;;;;5052405;28;20401;-72
2022/04/20 12:44:51;;;;;;;2.65;0.80;;;25.60;46.90;;;;;;5051815;28;20516;-71
2022/04/20 12:47:38;;;;;;;3.28;0.93;;;25.60;46.60;;;;;;5055549;28;20053;-71
2022/04/20 12:50:34;;;;;;;1.52;0.85;;;25.40;47.30;;;;;;5053485;28;20093;-72
2022/04/20 12:53:01;;;;;;;2.30;1.02;;;25.60;47.90;;;;;;5046917;28;20049;-71
2022/04/20 12:55:38;;;;;;;1.90;0.90;;;25.40;49.20;;;;;;5055953;28;20053;-71
2022/04/20 13:03:42;;;;;;;2.38;1.20;;;25.30;48.60;;;;;;5056053;28;20073;-70
2022/04/20 13:06:11;;;;;;;3.03;1.10;;;25.50;49.20;;;;;;5054582;28;20522;-70
2022/04/20 13:08:39;;;;;;;3.03;0.88;;;25.30;48.70;;;;;;5054926;28;20098;-70
2022/04/20 13:11:10;;;;;;;2.83;1.20;;;25.30;48.40;;;;;;5055006;28;20049;-70
2022/04/20 13:13:37;;;;;;;2.63;0.90;;;25.50;48.40;;;;;;5054070;28;20049;-70
2022/04/20 13:16:08;;;;;;;2.15;1.00;;;25.70;48.70;;;;;;5055321;28;20103;-71
2022/04/20 13:18:35;;;;;;;2.40;1.10;;;25.50;48.90;;;;;;5055135;28;20057;-70
2022/04/20 13:21:02;;;;;;;2.50;1.35;;;25.90;49.00;;;;;;5054024;28;20052;-71
2022/04/20 13:23:29;;;;;;;5.55;1.90;;;26.30;49.40;;;;;;5054413;28;20447;-70
2022/04/20 13:28:42;;;;;;;5.68;2.63;;;25.70;52.00;;;;;;5054419;28;20059;-70
2022/04/20 13:31:09;;;;;;;3.33;2.20;;;25.70;53.00;;;;;;5053860;28;20114;-70
2022/04/20 13:33:36;;;;;;;3.28;2.42;;;25.30;52.10;;;;;;5054474;28;20049;-70
2022/04/20 13:36:03;;;;;;;4.53;2.55;;;25.40;52.60;;;;;;5055340;28;20061;-70
2022/04/20 13:38:31;;;;;;;4.88;2.17;;;25.30;52.70;;;;;;5054556;28;20049;-70